sensor_id;sensor_type;location;lat;lon;timestamp;temperature;humidity
64062;DHT22;50308;47.438;-1.528;2023-03-11T00:00:01;10.50;82.40
64062;DHT22;50308;47.438;-1.528;2023-03-11T00:02:26;10.60;82.20
64062;DHT22;50308;47.438;-1.528;2023-03-11T00:04:52;10.70;81.90
64062;DHT22;50308;47.438;-1.528;2023-03-11T00:07:17;10.70;82.20
64062;DHT22;50308;47.438;-1.528;2023-03-11T00:09:43;10.70;81.80
64062;DHT22;50308;47.438;-1.528;2023-03-11T00:12:09;10.60;81.60
64062;DHT22;50308;47.438;-1.528;2023-03-11T00:14:34;10.60;82.00
64062;DHT22;50308;47.438;-1.528;2023-03-11T00:17:00;10.60;82.10
64062;DHT22;50308;47.438;-1.528;2023-03-11T00:19:25;10.60;82.20
64062;DHT22;50308;47.438;-1.528;2023-03-11T00:21:51;10.50;81.90
64062;DHT22;50308;47.438;-1.528;2023-03-11T00:24:16;10.50;83.20
64062;DHT22;50308;47.438;-1.528;2023-03-11T00:26:42;10.60;82.00
64062;DHT22;50308;47.438;-1.528;2023-03-11T00:29:07;10.70;81.60
64062;DHT22;50308;47.438;-1.528;2023-03-11T00:31:33;10.70;81.60
64062;DHT22;50308;47.438;-1.528;2023-03-11T00:33:58;10.60;81.50
64062;DHT22;50308;47.438;-1.528;2023-03-11T00:36:28;10.80;81.10
64062;DHT22;50308;47.438;-1.528;2023-03-11T00:38:58;10.70;80.90
64062;DHT22;50308;47.438;-1.528;2023-03-11T00:41:24;10.90;81.10
64062;DHT22;50308;47.438;-1.528;2023-03-11T00:43:49;11.00;80.90
64062;DHT22;50308;47.438;-1.528;2023-03-11T00:46:15;10.90;80.20
64062;DHT22;50308;47.438;-1.528;2023-03-11T00:48:40;10.80;81.30
64062;DHT22;50308;47.438;-1.528;2023-03-11T00:51:06;11.00;80.90
64062;DHT22;50308;47.438;-1.528;2023-03-11T00:53:32;11.00;80.20
64062;DHT22;50308;47.438;-1.528;2023-03-11T00:55:58;11.10;80.30
64062;DHT22;50308;47.438;-1.528;2023-03-11T00:58:24;11.20;79.90
64062;DHT22;50308;47.438;-1.528;2023-03-11T01:00:53;11.20;79.70
64062;DHT22;50308;47.438;-1.528;2023-03-11T01:03:18;11.30;79.30
64062;DHT22;50308;47.438;-1.528;2023-03-11T01:05:44;11.30;79.00
64062;DHT22;50308;47.438;-1.528;2023-03-11T01:08:09;11.30;79.10
64062;DHT22;50308;47.438;-1.528;2023-03-11T01:10:35;11.20;79.20
64062;DHT22;50308;47.438;-1.528;2023-03-11T01:13:00;11.10;79.40
64062;DHT22;50308;47.438;-1.528;2023-03-11T01:15:34;11.00;79.90
64062;DHT22;50308;47.438;-1.528;2023-03-11T01:18:00;11.10;79.80
64062;DHT22;50308;47.438;-1.528;2023-03-11T01:20:25;11.20;79.80
64062;DHT22;50308;47.438;-1.528;2023-03-11T01:22:51;11.30;79.60
64062;DHT22;50308;47.438;-1.528;2023-03-11T01:25:17;11.20;79.40
64062;DHT22;50308;47.438;-1.528;2023-03-11T01:27:43;11.20;79.80
64062;DHT22;50308;47.438;-1.528;2023-03-11T01:30:10;11.20;79.50
64062;DHT22;50308;47.438;-1.528;2023-03-11T01:32:37;11.00;79.90
64062;DHT22;50308;47.438;-1.528;2023-03-11T01:35:02;10.70;81.00
64062;DHT22;50308;47.438;-1.528;2023-03-11T01:37:28;10.60;81.60
64062;DHT22;50308;47.438;-1.528;2023-03-11T01:39:54;10.50;81.90
64062;DHT22;50308;47.438;-1.528;2023-03-11T01:42:19;10.50;82.00
64062;DHT22;50308;47.438;-1.528;2023-03-11T01:44:45;10.50;81.80
64062;DHT22;50308;47.438;-1.528;2023-03-11T01:49:36;10.50;82.20
64062;DHT22;50308;47.438;-1.528;2023-03-11T01:52:06;10.50;82.10
64062;DHT22;50308;47.438;-1.528;2023-03-11T01:54:33;10.50;81.90
64062;DHT22;50308;47.438;-1.528;2023-03-11T01:56:59;10.40;82.20
64062;DHT22;50308;47.438;-1.528;2023-03-11T01:59:28;10.40;82.10
64062;DHT22;50308;47.438;-1.528;2023-03-11T02:02:00;10.30;82.50
64062;DHT22;50308;47.438;-1.528;2023-03-11T02:04:27;10.30;82.50
64062;DHT22;50308;47.438;-1.528;2023-03-11T02:06:53;10.40;82.50
64062;DHT22;50308;47.438;-1.528;2023-03-11T02:09:19;10.40;82.40
64062;DHT22;50308;47.438;-1.528;2023-03-11T02:11:46;10.40;82.50
64062;DHT22;50308;47.438;-1.528;2023-03-11T02:14:12;10.40;82.50
64062;DHT22;50308;47.438;-1.528;2023-03-11T02:16:37;10.40;82.50
64062;DHT22;50308;47.438;-1.528;2023-03-11T02:19:20;10.30;82.40
64062;DHT22;50308;47.438;-1.528;2023-03-11T02:21:48;10.30;82.70
64062;DHT22;50308;47.438;-1.528;2023-03-11T02:24:15;10.30;82.70
64062;DHT22;50308;47.438;-1.528;2023-03-11T02:29:17;10.30;82.60
64062;DHT22;50308;47.438;-1.528;2023-03-11T02:31:44;10.30;82.60
64062;DHT22;50308;47.438;-1.528;2023-03-11T02:34:12;10.30;82.70
64062;DHT22;50308;47.438;-1.528;2023-03-11T02:36:40;10.30;82.80
64062;DHT22;50308;47.438;-1.528;2023-03-11T02:39:06;10.40;82.50
64062;DHT22;50308;47.438;-1.528;2023-03-11T02:41:33;10.40;82.50
64062;DHT22;50308;47.438;-1.528;2023-03-11T02:43:59;10.40;82.50
64062;DHT22;50308;47.438;-1.528;2023-03-11T02:46:26;10.40;82.20
64062;DHT22;50308;47.438;-1.528;2023-03-11T02:48:51;10.40;82.20
64062;DHT22;50308;47.438;-1.528;2023-03-11T02:51:18;10.30;82.50
64062;DHT22;50308;47.438;-1.528;2023-03-11T02:53:45;10.30;82.60
64062;DHT22;50308;47.438;-1.528;2023-03-11T02:56:11;10.30;82.50
64062;DHT22;50308;47.438;-1.528;2023-03-11T02:58:37;10.40;82.40
64062;DHT22;50308;47.438;-1.528;2023-03-11T03:01:03;10.30;82.50
64062;DHT22;50308;47.438;-1.528;2023-03-11T03:03:28;10.40;82.70
64062;DHT22;50308;47.438;-1.528;2023-03-11T03:05:54;10.60;82.20
64062;DHT22;50308;47.438;-1.528;2023-03-11T03:08:20;10.70;81.50
64062;DHT22;50308;47.438;-1.528;2023-03-11T03:10:45;10.70;81.70
64062;DHT22;50308;47.438;-1.528;2023-03-11T03:13:11;10.90;81.20
64062;DHT22;50308;47.438;-1.528;2023-03-11T03:15:37;11.00;80.50
64062;DHT22;50308;47.438;-1.528;2023-03-11T03:18:02;10.80;80.50
64062;DHT22;50308;47.438;-1.528;2023-03-11T03:20:28;10.70;81.40
64062;DHT22;50308;47.438;-1.528;2023-03-11T03:22:54;10.70;81.60
64062;DHT22;50308;47.438;-1.528;2023-03-11T03:25:19;10.80;81.50
64062;DHT22;50308;47.438;-1.528;2023-03-11T03:27:45;10.90;80.80
64062;DHT22;50308;47.438;-1.528;2023-03-11T03:30:11;10.90;80.70
64062;DHT22;50308;47.438;-1.528;2023-03-11T03:32:36;11.00;80.60
64062;DHT22;50308;47.438;-1.528;2023-03-11T03:35:02;11.00;80.40
64062;DHT22;50308;47.438;-1.528;2023-03-11T03:37:31;11.00;80.60
64062;DHT22;50308;47.438;-1.528;2023-03-11T03:39:56;11.00;80.00
64062;DHT22;50308;47.438;-1.528;2023-03-11T03:42:22;11.00;80.10
64062;DHT22;50308;47.438;-1.528;2023-03-11T03:44:50;11.10;80.30
64062;DHT22;50308;47.438;-1.528;2023-03-11T03:47:16;10.80;80.80
64062;DHT22;50308;47.438;-1.528;2023-03-11T03:49:42;10.60;81.60
64062;DHT22;50308;47.438;-1.528;2023-03-11T03:52:07;10.50;81.90
64062;DHT22;50308;47.438;-1.528;2023-03-11T03:54:35;10.70;82.00
64062;DHT22;50308;47.438;-1.528;2023-03-11T03:57:00;10.70;81.30
64062;DHT22;50308;47.438;-1.528;2023-03-11T03:59:26;10.80;81.50
64062;DHT22;50308;47.438;-1.528;2023-03-11T04:01:52;10.80;81.10
64062;DHT22;50308;47.438;-1.528;2023-03-11T04:04:17;10.80;81.60
64062;DHT22;50308;47.438;-1.528;2023-03-11T04:06:43;10.80;81.40
64062;DHT22;50308;47.438;-1.528;2023-03-11T04:09:09;10.70;81.20
64062;DHT22;50308;47.438;-1.528;2023-03-11T04:11:35;10.70;81.50
64062;DHT22;50308;47.438;-1.528;2023-03-11T04:14:01;10.60;82.00
64062;DHT22;50308;47.438;-1.528;2023-03-11T04:16:26;10.60;81.90
64062;DHT22;50308;47.438;-1.528;2023-03-11T04:18:52;10.70;81.60
64062;DHT22;50308;47.438;-1.528;2023-03-11T04:21:17;10.70;81.40
64062;DHT22;50308;47.438;-1.528;2023-03-11T04:23:43;10.50;82.50
64062;DHT22;50308;47.438;-1.528;2023-03-11T04:26:09;10.40;82.80
64062;DHT22;50308;47.438;-1.528;2023-03-11T04:28:34;10.30;82.70
64062;DHT22;50308;47.438;-1.528;2023-03-11T04:31:00;10.40;82.60
64062;DHT22;50308;47.438;-1.528;2023-03-11T04:33:25;10.40;82.80
64062;DHT22;50308;47.438;-1.528;2023-03-11T04:35:51;10.50;82.70
64062;DHT22;50308;47.438;-1.528;2023-03-11T04:38:16;10.40;82.60
64062;DHT22;50308;47.438;-1.528;2023-03-11T04:40:42;10.30;83.10
64062;DHT22;50308;47.438;-1.528;2023-03-11T04:43:07;10.40;83.20
64062;DHT22;50308;47.438;-1.528;2023-03-11T04:45:33;10.40;82.90
64062;DHT22;50308;47.438;-1.528;2023-03-11T04:48:00;10.40;83.00
64062;DHT22;50308;47.438;-1.528;2023-03-11T04:50:26;10.30;82.90
64062;DHT22;50308;47.438;-1.528;2023-03-11T04:52:51;10.40;82.90
64062;DHT22;50308;47.438;-1.528;2023-03-11T04:55:17;10.40;83.00
64062;DHT22;50308;47.438;-1.528;2023-03-11T04:57:42;10.40;82.90
64062;DHT22;50308;47.438;-1.528;2023-03-11T05:00:09;10.40;83.00
64062;DHT22;50308;47.438;-1.528;2023-03-11T05:02:36;10.40;82.90
64062;DHT22;50308;47.438;-1.528;2023-03-11T05:05:02;10.30;83.20
64062;DHT22;50308;47.438;-1.528;2023-03-11T05:07:28;10.30;83.10
64062;DHT22;50308;47.438;-1.528;2023-03-11T05:09:53;10.30;83.30
64062;DHT22;50308;47.438;-1.528;2023-03-11T05:12:19;10.30;83.10
64062;DHT22;50308;47.438;-1.528;2023-03-11T05:14:44;10.30;83.00
64062;DHT22;50308;47.438;-1.528;2023-03-11T05:17:10;10.30;82.90
64062;DHT22;50308;47.438;-1.528;2023-03-11T05:19:37;10.30;82.90
64062;DHT22;50308;47.438;-1.528;2023-03-11T05:22:03;10.30;83.50
64062;DHT22;50308;47.438;-1.528;2023-03-11T05:24:29;10.30;83.40
64062;DHT22;50308;47.438;-1.528;2023-03-11T05:26:55;10.40;83.00
64062;DHT22;50308;47.438;-1.528;2023-03-11T05:29:21;10.40;83.00
64062;DHT22;50308;47.438;-1.528;2023-03-11T05:31:46;10.40;82.90
64062;DHT22;50308;47.438;-1.528;2023-03-11T05:34:12;10.40;83.00
64062;DHT22;50308;47.438;-1.528;2023-03-11T05:36:38;10.50;82.70
64062;DHT22;50308;47.438;-1.528;2023-03-11T05:39:03;10.70;82.50
64062;DHT22;50308;47.438;-1.528;2023-03-11T05:41:29;10.80;81.40
64062;DHT22;50308;47.438;-1.528;2023-03-11T05:43:55;10.90;81.30
64062;DHT22;50308;47.438;-1.528;2023-03-11T05:46:21;11.00;80.80
64062;DHT22;50308;47.438;-1.528;2023-03-11T05:48:46;10.90;80.80
64062;DHT22;50308;47.438;-1.528;2023-03-11T05:51:12;11.00;81.10
64062;DHT22;50308;47.438;-1.528;2023-03-11T05:53:40;11.00;81.10
64062;DHT22;50308;47.438;-1.528;2023-03-11T05:56:06;11.00;80.80
64062;DHT22;50308;47.438;-1.528;2023-03-11T05:58:31;10.70;81.90
64062;DHT22;50308;47.438;-1.528;2023-03-11T06:00:57;10.80;81.70
64062;DHT22;50308;47.438;-1.528;2023-03-11T06:03:24;10.90;81.10
64062;DHT22;50308;47.438;-1.528;2023-03-11T06:05:50;10.70;81.20
64062;DHT22;50308;47.438;-1.528;2023-03-11T06:08:17;10.40;82.50
64062;DHT22;50308;47.438;-1.528;2023-03-11T06:10:43;10.60;82.10
64062;DHT22;50308;47.438;-1.528;2023-03-11T06:13:09;10.40;82.40
64062;DHT22;50308;47.438;-1.528;2023-03-11T06:15:35;10.40;83.10
64062;DHT22;50308;47.438;-1.528;2023-03-11T06:18:01;10.70;82.30
64062;DHT22;50308;47.438;-1.528;2023-03-11T06:20:27;10.40;82.20
64062;DHT22;50308;47.438;-1.528;2023-03-11T06:22:53;10.30;82.60
64062;DHT22;50308;47.438;-1.528;2023-03-11T06:25:18;10.40;82.90
64062;DHT22;50308;47.438;-1.528;2023-03-11T06:27:47;10.30;82.90
64062;DHT22;50308;47.438;-1.528;2023-03-11T06:30:15;10.50;82.60
64062;DHT22;50308;47.438;-1.528;2023-03-11T06:32:42;10.60;82.40
64062;DHT22;50308;47.438;-1.528;2023-03-11T06:35:07;10.70;81.80
64062;DHT22;50308;47.438;-1.528;2023-03-11T06:37:34;10.80;81.60
64062;DHT22;50308;47.438;-1.528;2023-03-11T06:40:00;10.90;81.30
64062;DHT22;50308;47.438;-1.528;2023-03-11T06:42:26;10.90;81.50
64062;DHT22;50308;47.438;-1.528;2023-03-11T06:44:51;10.90;81.00
64062;DHT22;50308;47.438;-1.528;2023-03-11T06:47:17;10.90;81.40
64062;DHT22;50308;47.438;-1.528;2023-03-11T06:49:42;10.90;81.10
64062;DHT22;50308;47.438;-1.528;2023-03-11T06:52:08;10.80;81.40
64062;DHT22;50308;47.438;-1.528;2023-03-11T06:54:34;10.80;81.40
64062;DHT22;50308;47.438;-1.528;2023-03-11T06:57:00;10.60;82.10
64062;DHT22;50308;47.438;-1.528;2023-03-11T06:59:26;10.70;82.10
64062;DHT22;50308;47.438;-1.528;2023-03-11T07:01:53;10.60;82.20
64062;DHT22;50308;47.438;-1.528;2023-03-11T07:04:18;10.80;81.80
64062;DHT22;50308;47.438;-1.528;2023-03-11T07:06:44;10.90;81.20
64062;DHT22;50308;47.438;-1.528;2023-03-11T07:09:10;10.90;81.60
64062;DHT22;50308;47.438;-1.528;2023-03-11T07:11:35;10.90;81.20
64062;DHT22;50308;47.438;-1.528;2023-03-11T07:14:01;10.90;81.20
64062;DHT22;50308;47.438;-1.528;2023-03-11T07:16:27;10.90;81.30
64062;DHT22;50308;47.438;-1.528;2023-03-11T07:18:54;10.70;82.00
64062;DHT22;50308;47.438;-1.528;2023-03-11T07:21:20;10.60;82.50
64062;DHT22;50308;47.438;-1.528;2023-03-11T07:23:46;10.50;82.90
64062;DHT22;50308;47.438;-1.528;2023-03-11T07:26:13;10.40;83.50
64062;DHT22;50308;47.438;-1.528;2023-03-11T07:28:39;10.50;83.70
64062;DHT22;50308;47.438;-1.528;2023-03-11T07:31:13;10.40;83.60
64062;DHT22;50308;47.438;-1.528;2023-03-11T07:33:40;10.40;83.70
64062;DHT22;50308;47.438;-1.528;2023-03-11T07:36:09;10.50;83.50
64062;DHT22;50308;47.438;-1.528;2023-03-11T07:38:35;10.60;83.10
64062;DHT22;50308;47.438;-1.528;2023-03-11T07:41:01;10.70;82.70
64062;DHT22;50308;47.438;-1.528;2023-03-11T07:43:26;10.80;82.40
64062;DHT22;50308;47.438;-1.528;2023-03-11T07:45:52;10.80;82.80
64062;DHT22;50308;47.438;-1.528;2023-03-11T07:48:25;10.90;82.00
64062;DHT22;50308;47.438;-1.528;2023-03-11T07:50:58;11.00;81.90
64062;DHT22;50308;47.438;-1.528;2023-03-11T07:53:23;11.00;81.50
64062;DHT22;50308;47.438;-1.528;2023-03-11T07:55:53;11.10;81.40
64062;DHT22;50308;47.438;-1.528;2023-03-11T07:58:19;11.00;81.60
64062;DHT22;50308;47.438;-1.528;2023-03-11T08:00:45;11.10;81.40
64062;DHT22;50308;47.438;-1.528;2023-03-11T08:03:10;11.10;81.60
64062;DHT22;50308;47.438;-1.528;2023-03-11T08:05:36;11.10;81.50
64062;DHT22;50308;47.438;-1.528;2023-03-11T08:08:01;11.10;81.40
64062;DHT22;50308;47.438;-1.528;2023-03-11T08:10:27;11.00;81.70
64062;DHT22;50308;47.438;-1.528;2023-03-11T08:12:53;11.10;81.90
64062;DHT22;50308;47.438;-1.528;2023-03-11T08:15:18;11.00;82.00
64062;DHT22;50308;47.438;-1.528;2023-03-11T08:17:44;11.00;82.00
64062;DHT22;50308;47.438;-1.528;2023-03-11T08:20:10;11.10;82.20
64062;DHT22;50308;47.438;-1.528;2023-03-11T08:22:35;11.10;82.00
64062;DHT22;50308;47.438;-1.528;2023-03-11T08:25:01;11.00;82.40
64062;DHT22;50308;47.438;-1.528;2023-03-11T08:27:27;11.00;82.50
64062;DHT22;50308;47.438;-1.528;2023-03-11T08:29:52;11.10;82.20
64062;DHT22;50308;47.438;-1.528;2023-03-11T08:32:18;11.10;82.30
64062;DHT22;50308;47.438;-1.528;2023-03-11T08:34:43;11.10;82.30
64062;DHT22;50308;47.438;-1.528;2023-03-11T08:37:09;11.00;83.90
64062;DHT22;50308;47.438;-1.528;2023-03-11T08:39:34;11.00;83.00
64062;DHT22;50308;47.438;-1.528;2023-03-11T08:42:00;11.00;83.10
64062;DHT22;50308;47.438;-1.528;2023-03-11T08:44:27;11.10;82.60
64062;DHT22;50308;47.438;-1.528;2023-03-11T08:46:52;11.10;82.90
64062;DHT22;50308;47.438;-1.528;2023-03-11T08:49:18;11.10;83.30
64062;DHT22;50308;47.438;-1.528;2023-03-11T08:51:44;11.10;83.20
64062;DHT22;50308;47.438;-1.528;2023-03-11T08:54:09;11.10;83.10
64062;DHT22;50308;47.438;-1.528;2023-03-11T08:56:35;11.20;83.40
64062;DHT22;50308;47.438;-1.528;2023-03-11T08:59:00;11.20;83.40
64062;DHT22;50308;47.438;-1.528;2023-03-11T09:01:26;11.00;83.80
64062;DHT22;50308;47.438;-1.528;2023-03-11T09:03:55;11.10;83.90
64062;DHT22;50308;47.438;-1.528;2023-03-11T09:06:21;11.10;83.80
64062;DHT22;50308;47.438;-1.528;2023-03-11T09:08:48;11.10;83.80
64062;DHT22;50308;47.438;-1.528;2023-03-11T09:11:14;11.10;84.20
64062;DHT22;50308;47.438;-1.528;2023-03-11T09:13:40;11.10;84.50
64062;DHT22;50308;47.438;-1.528;2023-03-11T09:16:07;11.20;84.50
64062;DHT22;50308;47.438;-1.528;2023-03-11T09:18:33;11.20;84.10
64062;DHT22;50308;47.438;-1.528;2023-03-11T09:20:59;11.20;84.20
64062;DHT22;50308;47.438;-1.528;2023-03-11T09:23:25;11.20;84.70
64062;DHT22;50308;47.438;-1.528;2023-03-11T09:25:50;11.20;84.70
64062;DHT22;50308;47.438;-1.528;2023-03-11T09:28:16;11.20;85.00
64062;DHT22;50308;47.438;-1.528;2023-03-11T09:30:41;11.30;85.20
64062;DHT22;50308;47.438;-1.528;2023-03-11T09:33:07;11.20;85.40
64062;DHT22;50308;47.438;-1.528;2023-03-11T09:35:33;11.20;85.30
64062;DHT22;50308;47.438;-1.528;2023-03-11T09:37:59;11.20;85.80
64062;DHT22;50308;47.438;-1.528;2023-03-11T09:40:24;11.20;85.50
64062;DHT22;50308;47.438;-1.528;2023-03-11T09:45:59;11.30;86.10
64062;DHT22;50308;47.438;-1.528;2023-03-11T09:49:12;11.30;86.20
64062;DHT22;50308;47.438;-1.528;2023-03-11T09:51:27;11.30;86.00
64062;DHT22;50308;47.438;-1.528;2023-03-11T09:53:54;11.30;86.50
64062;DHT22;50308;47.438;-1.528;2023-03-11T09:56:23;11.20;86.80
64062;DHT22;50308;47.438;-1.528;2023-03-11T09:58:49;11.20;87.30
64062;DHT22;50308;47.438;-1.528;2023-03-11T10:01:32;11.20;86.80
64062;DHT22;50308;47.438;-1.528;2023-03-11T10:04:20;11.30;86.60
64062;DHT22;50308;47.438;-1.528;2023-03-11T10:06:44;11.30;86.60
64062;DHT22;50308;47.438;-1.528;2023-03-11T10:19:33;11.50;87.40
64062;DHT22;50308;47.438;-1.528;2023-03-11T10:22:04;11.40;87.40
64062;DHT22;50308;47.438;-1.528;2023-03-11T10:24:35;11.50;87.00
64062;DHT22;50308;47.438;-1.528;2023-03-11T10:27:05;11.50;88.30
64062;DHT22;50308;47.438;-1.528;2023-03-11T10:29:45;11.50;88.10
64062;DHT22;50308;47.438;-1.528;2023-03-11T10:32:35;11.50;87.50
64062;DHT22;50308;47.438;-1.528;2023-03-11T10:35:00;11.60;89.10
64062;DHT22;50308;47.438;-1.528;2023-03-11T10:37:37;11.60;88.20
64062;DHT22;50308;47.438;-1.528;2023-03-11T10:40:16;11.60;88.60
64062;DHT22;50308;47.438;-1.528;2023-03-11T10:42:43;11.60;87.90
64062;DHT22;50308;47.438;-1.528;2023-03-11T10:45:11;11.60;88.80
64062;DHT22;50308;47.438;-1.528;2023-03-11T10:47:37;11.60;88.40
64062;DHT22;50308;47.438;-1.528;2023-03-11T10:50:03;11.60;88.30
64062;DHT22;50308;47.438;-1.528;2023-03-11T10:52:28;11.60;87.40
64062;DHT22;50308;47.438;-1.528;2023-03-11T10:55:00;11.70;88.70
64062;DHT22;50308;47.438;-1.528;2023-03-11T10:57:28;11.70;88.20
64062;DHT22;50308;47.438;-1.528;2023-03-11T10:59:55;11.70;88.30
64062;DHT22;50308;47.438;-1.528;2023-03-11T11:05:32;11.70;87.20
64062;DHT22;50308;47.438;-1.528;2023-03-11T11:08:11;11.70;88.80
64062;DHT22;50308;47.438;-1.528;2023-03-11T11:10:37;11.70;88.60
64062;DHT22;50308;47.438;-1.528;2023-03-11T11:15:49;11.70;87.90
64062;DHT22;50308;47.438;-1.528;2023-03-11T11:18:17;11.80;87.00
64062;DHT22;50308;47.438;-1.528;2023-03-11T11:20:57;11.80;83.50
64062;DHT22;50308;47.438;-1.528;2023-03-11T11:26:22;11.80;83.30
64062;DHT22;50308;47.438;-1.528;2023-03-11T11:31:33;11.80;82.50
64062;DHT22;50308;47.438;-1.528;2023-03-11T11:33:58;11.90;82.40
64062;DHT22;50308;47.438;-1.528;2023-03-11T11:36:31;11.90;82.40
64062;DHT22;50308;47.438;-1.528;2023-03-11T11:38:58;11.90;82.30
64062;DHT22;50308;47.438;-1.528;2023-03-11T11:41:26;11.90;82.40
64062;DHT22;50308;47.438;-1.528;2023-03-11T11:43:54;11.90;82.40
64062;DHT22;50308;47.438;-1.528;2023-03-11T11:46:24;11.90;82.30
64062;DHT22;50308;47.438;-1.528;2023-03-11T11:51:31;11.90;82.10
64062;DHT22;50308;47.438;-1.528;2023-03-11T11:54:03;11.90;82.10
64062;DHT22;50308;47.438;-1.528;2023-03-11T11:56:31;11.90;82.20
64062;DHT22;50308;47.438;-1.528;2023-03-11T11:58:57;12.00;82.50
64062;DHT22;50308;47.438;-1.528;2023-03-11T12:11:37;12.10;84.30
64062;DHT22;50308;47.438;-1.528;2023-03-11T12:15:04;12.10;83.90
64062;DHT22;50308;47.438;-1.528;2023-03-11T12:17:02;12.10;84.90
64062;DHT22;50308;47.438;-1.528;2023-03-11T12:27:11;12.20;86.00
64062;DHT22;50308;47.438;-1.528;2023-03-11T12:29:40;12.20;85.20
64062;DHT22;50308;47.438;-1.528;2023-03-11T12:32:08;12.30;88.10
64062;DHT22;50308;47.438;-1.528;2023-03-11T12:34:44;12.30;87.90
64062;DHT22;50308;47.438;-1.528;2023-03-11T12:37:12;12.30;86.80
64062;DHT22;50308;47.438;-1.528;2023-03-11T12:39:39;12.40;88.50
64062;DHT22;50308;47.438;-1.528;2023-03-11T12:42:18;12.40;86.10
64062;DHT22;50308;47.438;-1.528;2023-03-11T12:44:45;12.40;88.60
64062;DHT22;50308;47.438;-1.528;2023-03-11T13:13:00;12.50;89.00
64062;DHT22;50308;47.438;-1.528;2023-03-11T13:18:34;12.50;87.60
64062;DHT22;50308;47.438;-1.528;2023-03-11T13:23:07;12.60;88.80
64062;DHT22;50308;47.438;-1.528;2023-03-11T13:25:35;12.60;89.20
64062;DHT22;50308;47.438;-1.528;2023-03-11T13:30:32;12.70;89.80
64062;DHT22;50308;47.438;-1.528;2023-03-11T13:35:32;12.80;89.70
64062;DHT22;50308;47.438;-1.528;2023-03-11T13:40:45;12.80;90.20
64062;DHT22;50308;47.438;-1.528;2023-03-11T13:43:13;12.90;90.30
64062;DHT22;50308;47.438;-1.528;2023-03-11T13:45:39;12.90;90.90
64062;DHT22;50308;47.438;-1.528;2023-03-11T13:53:39;12.90;90.40
64062;DHT22;50308;47.438;-1.528;2023-03-11T13:59:13;12.90;90.40
64062;DHT22;50308;47.438;-1.528;2023-03-11T14:01:39;12.90;90.50
64062;DHT22;50308;47.438;-1.528;2023-03-11T14:04:09;12.90;90.50
64062;DHT22;50308;47.438;-1.528;2023-03-11T14:06:34;13.00;90.70
64062;DHT22;50308;47.438;-1.528;2023-03-11T14:09:00;13.00;90.50
64062;DHT22;50308;47.438;-1.528;2023-03-11T14:11:26;12.90;90.60
64062;DHT22;50308;47.438;-1.528;2023-03-11T14:13:53;12.90;90.50
64062;DHT22;50308;47.438;-1.528;2023-03-11T14:16:32;13.00;90.60
64062;DHT22;50308;47.438;-1.528;2023-03-11T14:19:13;13.00;90.70
64062;DHT22;50308;47.438;-1.528;2023-03-11T14:21:48;13.00;90.70
64062;DHT22;50308;47.438;-1.528;2023-03-11T14:24:16;13.00;91.00
64062;DHT22;50308;47.438;-1.528;2023-03-11T14:26:42;13.10;90.30
64062;DHT22;50308;47.438;-1.528;2023-03-11T14:29:14;13.10;90.60
64062;DHT22;50308;47.438;-1.528;2023-03-11T14:31:41;13.10;90.80
64062;DHT22;50308;47.438;-1.528;2023-03-11T14:36:46;13.10;91.10
64062;DHT22;50308;47.438;-1.528;2023-03-11T14:39:23;13.10;90.80
64062;DHT22;50308;47.438;-1.528;2023-03-11T14:41:50;13.10;90.90
64062;DHT22;50308;47.438;-1.528;2023-03-11T14:44:19;13.20;90.80
64062;DHT22;50308;47.438;-1.528;2023-03-11T14:46:45;13.20;91.10
64062;DHT22;50308;47.438;-1.528;2023-03-11T14:49:13;13.20;90.90
64062;DHT22;50308;47.438;-1.528;2023-03-11T14:51:40;13.10;90.50
64062;DHT22;50308;47.438;-1.528;2023-03-11T14:56:32;13.10;90.30
64062;DHT22;50308;47.438;-1.528;2023-03-11T15:01:29;13.20;90.80
64062;DHT22;50308;47.438;-1.528;2023-03-11T15:04:11;13.20;90.60
64062;DHT22;50308;47.438;-1.528;2023-03-11T15:06:46;13.20;90.80
64062;DHT22;50308;47.438;-1.528;2023-03-11T15:09:13;13.20;90.90
64062;DHT22;50308;47.438;-1.528;2023-03-11T15:11:47;13.30;90.90
64062;DHT22;50308;47.438;-1.528;2023-03-11T15:14:18;13.20;90.80
64062;DHT22;50308;47.438;-1.528;2023-03-11T15:16:44;13.20;90.90
64062;DHT22;50308;47.438;-1.528;2023-03-11T15:21:48;13.20;90.80
64062;DHT22;50308;47.438;-1.528;2023-03-11T15:24:17;13.30;91.10
64062;DHT22;50308;47.438;-1.528;2023-03-11T15:26:51;13.30;90.80
64062;DHT22;50308;47.438;-1.528;2023-03-11T15:29:17;13.30;90.80
64062;DHT22;50308;47.438;-1.528;2023-03-11T15:31:43;13.30;90.60
64062;DHT22;50308;47.438;-1.528;2023-03-11T15:36:38;13.30;90.60
64062;DHT22;50308;47.438;-1.528;2023-03-11T15:41:33;13.30;90.90
64062;DHT22;50308;47.438;-1.528;2023-03-11T15:43:58;13.30;90.50
64062;DHT22;50308;47.438;-1.528;2023-03-11T15:46:26;13.30;90.60
64062;DHT22;50308;47.438;-1.528;2023-03-11T15:48:51;13.30;90.90
64062;DHT22;50308;47.438;-1.528;2023-03-11T15:51:18;13.30;90.90
64062;DHT22;50308;47.438;-1.528;2023-03-11T15:53:44;13.30;90.90
64062;DHT22;50308;47.438;-1.528;2023-03-11T15:56:11;13.30;90.90
64062;DHT22;50308;47.438;-1.528;2023-03-11T15:58:37;13.30;90.40
64062;DHT22;50308;47.438;-1.528;2023-03-11T16:01:03;13.40;90.60
64062;DHT22;50308;47.438;-1.528;2023-03-11T16:03:29;13.40;91.00
64062;DHT22;50308;47.438;-1.528;2023-03-11T16:05:54;13.40;91.00
64062;DHT22;50308;47.438;-1.528;2023-03-11T16:08:20;13.40;90.90
64062;DHT22;50308;47.438;-1.528;2023-03-11T16:10:45;13.30;90.70
64062;DHT22;50308;47.438;-1.528;2023-03-11T16:13:11;13.30;90.40
64062;DHT22;50308;47.438;-1.528;2023-03-11T16:15:37;13.30;90.40
64062;DHT22;50308;47.438;-1.528;2023-03-11T16:18:04;13.40;90.50
64062;DHT22;50308;47.438;-1.528;2023-03-11T16:20:30;13.30;90.80
64062;DHT22;50308;47.438;-1.528;2023-03-11T16:22:57;13.30;90.80
64062;DHT22;50308;47.438;-1.528;2023-03-11T16:27:49;13.30;90.50
64062;DHT22;50308;47.438;-1.528;2023-03-11T16:30:15;13.30;90.50
64062;DHT22;50308;47.438;-1.528;2023-03-11T16:32:41;13.30;90.80
64062;DHT22;50308;47.438;-1.528;2023-03-11T16:35:08;13.30;90.40
64062;DHT22;50308;47.438;-1.528;2023-03-11T16:37:34;13.40;90.80
64062;DHT22;50308;47.438;-1.528;2023-03-11T16:39:59;13.30;90.50
64062;DHT22;50308;47.438;-1.528;2023-03-11T16:42:25;13.30;90.70
64062;DHT22;50308;47.438;-1.528;2023-03-11T16:44:50;13.30;90.80
64062;DHT22;50308;47.438;-1.528;2023-03-11T16:47:16;13.30;90.60
64062;DHT22;50308;47.438;-1.528;2023-03-11T16:49:42;13.30;90.60
64062;DHT22;50308;47.438;-1.528;2023-03-11T16:52:07;13.30;90.10
64062;DHT22;50308;47.438;-1.528;2023-03-11T16:54:33;13.30;90.80
64062;DHT22;50308;47.438;-1.528;2023-03-11T16:56:59;13.30;90.80
64062;DHT22;50308;47.438;-1.528;2023-03-11T16:59:25;13.30;90.90
64062;DHT22;50308;47.438;-1.528;2023-03-11T17:01:50;13.30;90.30
64062;DHT22;50308;47.438;-1.528;2023-03-11T17:04:16;13.30;90.50
64062;DHT22;50308;47.438;-1.528;2023-03-11T17:06:41;13.30;90.80
64062;DHT22;50308;47.438;-1.528;2023-03-11T17:09:07;13.30;90.70